createdAt,value
2023-07-02T00:00:09.913Z,70.96
2023-07-02T00:02:38.050Z,70.86
2023-07-02T00:05:06.463Z,70.92
2023-07-02T00:07:35.847Z,71.20
2023-07-02T00:10:03.569Z,70.97
2023-07-02T00:12:30.759Z,71.17
2023-07-02T00:14:58.042Z,71.27
2023-07-02T00:17:25.312Z,71.06
2023-07-02T00:19:53.410Z,70.90
2023-07-02T00:22:21.984Z,70.79
2023-07-02T00:24:51.692Z,70.84
2023-07-02T00:27:19.251Z,70.72
2023-07-02T00:29:46.411Z,70.52
2023-07-02T00:32:13.614Z,70.42
2023-07-02T00:34:40.814Z,70.49
2023-07-02T00:37:08.029Z,70.49
2023-07-02T00:39:35.393Z,70.08
2023-07-02T00:42:04.220Z,70.29
2023-07-02T00:44:31.956Z,70.12
2023-07-02T00:46:59.216Z,70.44
2023-07-02T00:49:26.792Z,70.38
2023-07-02T00:51:54.008Z,70.19
2023-07-02T00:54:21.230Z,70.52
2023-07-02T00:56:48.543Z,70.12
2023-07-02T00:59:15.901Z,70.04
2023-07-02T01:01:43.320Z,69.83
2023-07-02T01:04:10.844Z,70.06
2023-07-02T01:06:42.869Z,69.57
2023-07-02T01:09:11.088Z,69.63
2023-07-02T01:11:39.773Z,69.85
2023-07-02T01:14:14.026Z,69.97
2023-07-02T01:16:44.895Z,69.90
2023-07-02T01:19:20.082Z,69.80
2023-07-02T01:21:50.996Z,69.30
2023-07-02T01:24:19.008Z,69.54
2023-07-02T01:26:46.896Z,69.75
2023-07-02T01:29:22.304Z,69.26
2023-07-02T01:31:49.581Z,69.40
2023-07-02T01:34:16.982Z,69.49
2023-07-02T01:36:44.169Z,69.21
2023-07-02T01:39:11.466Z,69.49
2023-07-02T01:41:56.034Z,69.16
2023-07-02T01:44:23.800Z,69.11
2023-07-02T01:46:51.015Z,69.34
2023-07-02T01:49:19.329Z,69.19
2023-07-02T01:51:50.334Z,69.01
2023-07-02T01:54:17.798Z,69.24
2023-07-02T01:56:45.022Z,69.74
2023-07-02T01:59:12.676Z,69.49
2023-07-02T02:01:42.684Z,69.46
2023-07-02T02:04:10.936Z,69.66
2023-07-02T02:06:39.426Z,69.50
2023-07-02T02:09:07.438Z,69.52
2023-07-02T02:11:36.089Z,69.24
2023-07-02T02:14:03.345Z,68.81
2023-07-02T02:16:30.864Z,68.93
2023-07-02T02:18:58.083Z,68.57
2023-07-02T02:21:25.282Z,68.69
2023-07-02T02:23:52.464Z,68.34
2023-07-02T02:26:19.659Z,68.25
2023-07-02T02:28:46.864Z,68.14
2023-07-02T02:31:14.166Z,68.25
2023-07-02T02:33:41.418Z,68.02
2023-07-02T02:36:08.721Z,68.01
2023-07-02T02:38:36.051Z,68.04
2023-07-02T02:41:03.543Z,68.05
2023-07-02T02:43:30.785Z,67.77
2023-07-02T02:45:57.992Z,68.01
2023-07-02T02:48:25.188Z,67.97
2023-07-02T02:50:52.402Z,67.66
2023-07-02T02:53:19.592Z,68.20
2023-07-02T02:55:46.757Z,68.01
2023-07-02T02:58:13.929Z,68.38
2023-07-02T03:00:43.865Z,68.07
2023-07-02T03:03:11.220Z,67.91
2023-07-02T03:05:38.440Z,68.13
2023-07-02T03:08:06.836Z,68.34
2023-07-02T03:10:34.043Z,68.69
2023-07-02T03:13:01.512Z,68.67
2023-07-02T03:15:28.730Z,68.58
2023-07-02T03:17:55.954Z,68.77
2023-07-02T03:20:23.378Z,68.65
2023-07-02T03:22:50.569Z,68.56
2023-07-02T03:25:18.546Z,68.63
2023-07-02T03:27:45.808Z,68.28
2023-07-02T03:30:13.161Z,68.32
2023-07-02T03:32:40.409Z,68.70
2023-07-02T03:35:07.937Z,68.45
2023-07-02T03:37:35.095Z,68.27
2023-07-02T03:40:02.300Z,68.28
2023-07-02T03:42:30.003Z,68.49
2023-07-02T03:44:57.201Z,68.50
2023-07-02T03:47:24.391Z,68.18
2023-07-02T03:49:51.946Z,68.18
2023-07-02T03:52:19.205Z,68.30
2023-07-02T03:54:46.446Z,68.22
2023-07-02T03:57:13.648Z,68.32
2023-07-02T03:59:40.829Z,68.10
2023-07-02T04:02:08.048Z,68.13
2023-07-02T04:04:35.382Z,68.24
2023-07-02T04:07:02.661Z,67.91
2023-07-02T04:09:30.141Z,68.13
2023-07-02T04:11:57.360Z,67.76
2023-07-02T04:14:24.507Z,67.68
2023-07-02T04:16:51.693Z,67.35
2023-07-02T04:19:18.927Z,67.18
2023-07-02T04:21:46.072Z,67.20
2023-07-02T04:24:13.213Z,67.53
2023-07-02T04:26:58.802Z,67.37
2023-07-02T04:29:31.235Z,67.31
2023-07-02T04:31:58.407Z,67.42
2023-07-02T04:34:25.674Z,67.13
2023-07-02T04:36:54.070Z,67.17
2023-07-02T04:39:21.411Z,67.10
2023-07-02T04:41:50.296Z,66.64
2023-07-02T04:44:17.445Z,66.72
2023-07-02T04:46:44.594Z,67.03
2023-07-02T04:49:11.832Z,66.94
2023-07-02T04:51:39.110Z,66.71
2023-07-02T04:54:06.258Z,66.63
2023-07-02T04:56:33.448Z,66.40
2023-07-02T04:59:00.596Z,66.65
2023-07-02T05:01:29.492Z,66.49
2023-07-02T05:03:56.876Z,66.79
2023-07-02T05:06:24.120Z,66.66
2023-07-02T05:08:51.323Z,66.76
2023-07-02T05:11:18.446Z,66.01
2023-07-02T05:13:45.632Z,65.92
2023-07-02T05:16:12.894Z,65.92
2023-07-02T05:18:40.198Z,65.37
2023-07-02T05:21:07.367Z,66.03
2023-07-02T05:23:34.570Z,65.68
2023-07-02T05:26:02.827Z,65.68
2023-07-02T05:28:30.198Z,65.04
2023-07-02T05:30:57.452Z,65.16
2023-07-02T05:33:24.681Z,64.85
2023-07-02T05:35:52.230Z,65.45
2023-07-02T05:38:20.505Z,65.08
2023-07-02T05:40:48.062Z,64.84
2023-07-02T05:43:15.582Z,64.94
2023-07-02T05:45:42.886Z,64.69
2023-07-02T05:48:10.156Z,64.78
2023-07-02T05:50:37.436Z,64.84
2023-07-02T05:53:04.648Z,64.47
2023-07-02T05:55:31.816Z,64.55
2023-07-02T05:58:02.860Z,64.38
2023-07-02T06:00:30.744Z,64.59
2023-07-02T06:02:58.030Z,64.61
2023-07-02T06:05:25.354Z,64.22
2023-07-02T06:07:52.931Z,64.27
2023-07-02T06:10:20.135Z,64.00
2023-07-02T06:12:47.365Z,63.52
2023-07-02T06:15:14.543Z,63.81
2023-07-02T06:17:41.737Z,63.46
2023-07-02T06:20:09.480Z,63.44
2023-07-02T06:22:36.658Z,62.58
2023-07-02T06:25:05.732Z,62.61
2023-07-02T06:27:33.494Z,62.38
2023-07-02T06:30:00.665Z,62.03
2023-07-02T06:32:28.545Z,61.65
2023-07-02T06:34:55.803Z,61.57
2023-07-02T06:37:23.036Z,60.85
2023-07-02T06:39:50.246Z,61.35
2023-07-02T06:42:17.476Z,61.24
2023-07-02T06:44:44.736Z,60.62
2023-07-02T06:47:11.898Z,60.50
2023-07-02T06:49:39.195Z,60.21
2023-07-02T06:52:06.612Z,60.42
2023-07-02T06:54:33.804Z,60.13
2023-07-02T06:57:01.172Z,60.48
2023-07-02T06:59:28.344Z,61.00
2023-07-02T07:01:55.805Z,60.46
2023-07-02T07:04:23.095Z,60.27
2023-07-02T07:06:50.438Z,59.90
2023-07-02T07:09:19.190Z,59.97
2023-07-02T07:11:46.384Z,59.58
2023-07-02T07:14:13.698Z,58.78
2023-07-02T07:16:41.086Z,57.24
2023-07-02T07:19:08.809Z,55.82
2023-07-02T07:21:36.466Z,55.94
2023-07-02T07:24:03.802Z,55.08
2023-07-02T07:26:31.134Z,54.75
2023-07-02T07:28:59.253Z,54.40
2023-07-02T07:31:26.595Z,53.83
2023-07-02T07:33:53.821Z,54.31
2023-07-02T07:36:20.995Z,53.82
2023-07-02T07:38:48.163Z,53.49
2023-07-02T07:41:15.428Z,52.88
2023-07-02T07:43:42.589Z,52.81
2023-07-02T07:46:09.945Z,52.71
2023-07-02T07:48:37.261Z,52.98
2023-07-02T07:51:04.590Z,53.26
2023-07-02T07:53:31.703Z,52.95
2023-07-02T07:55:59.302Z,52.73
2023-07-02T07:58:26.958Z,51.12
2023-07-02T08:00:54.166Z,51.23
2023-07-02T08:03:21.479Z,50.41
2023-07-02T08:05:48.691Z,50.39
2023-07-02T08:08:16.128Z,51.40
2023-07-02T08:10:43.525Z,51.37
2023-07-02T08:13:10.761Z,50.65
2023-07-02T08:15:38.918Z,49.62
2023-07-02T08:18:08.700Z,49.99
2023-07-02T08:20:35.880Z,50.93
2023-07-02T08:23:03.117Z,51.87
2023-07-02T08:25:30.450Z,51.84
2023-07-02T08:27:58.303Z,50.71
2023-07-02T08:30:26.876Z,50.11
2023-07-02T08:32:55.764Z,50.33
2023-07-02T08:35:23.262Z,50.97
2023-07-02T08:37:50.532Z,51.12
2023-07-02T08:40:19.306Z,51.24
2023-07-02T08:42:48.642Z,50.92
2023-07-02T08:45:20.013Z,50.52
2023-07-02T08:47:47.381Z,50.20
2023-07-02T08:50:15.359Z,49.85
2023-07-02T08:52:44.235Z,50.11
2023-07-02T08:55:11.566Z,48.90
2023-07-02T08:57:38.770Z,48.63
2023-07-02T09:00:10.947Z,48.23
2023-07-02T09:02:38.289Z,48.84
2023-07-02T09:05:06.263Z,48.96
2023-07-02T09:07:33.657Z,49.14
2023-07-02T09:10:00.888Z,48.74
2023-07-02T09:12:30.053Z,49.23
2023-07-02T09:15:07.902Z,49.00
2023-07-02T09:17:37.029Z,49.26
2023-07-02T09:20:09.851Z,48.82
2023-07-02T09:22:37.997Z,49.46
2023-07-02T09:25:05.878Z,50.87
2023-07-02T09:27:40.861Z,50.75
2023-07-02T09:30:09.457Z,51.44
2023-07-02T09:32:37.030Z,49.68
2023-07-02T09:35:05.904Z,49.29
2023-07-02T09:37:33.818Z,49.28
2023-07-02T09:40:02.772Z,48.76
2023-07-02T09:42:30.810Z,49.16
2023-07-02T09:45:00.119Z,49.26
2023-07-02T09:47:28.551Z,48.67
2023-07-02T09:50:00.894Z,49.66
2023-07-02T09:52:31.340Z,49.96
2023-07-02T09:54:58.558Z,50.04
2023-07-02T09:57:26.030Z,49.56
2023-07-02T09:59:53.334Z,49.81
2023-07-02T10:02:20.841Z,49.02
2023-07-02T10:04:49.467Z,48.28
2023-07-02T10:07:28.603Z,47.66
2023-07-02T10:09:55.961Z,46.65
2023-07-02T10:12:24.861Z,47.26
2023-07-02T10:14:54.870Z,46.69
2023-07-02T10:17:30.315Z,45.30
2023-07-02T10:20:00.576Z,44.06
2023-07-02T10:22:28.471Z,43.43
2023-07-02T10:25:03.297Z,44.51
2023-07-02T10:27:38.808Z,43.81
2023-07-02T10:30:07.991Z,45.00
2023-07-02T10:32:36.798Z,45.13
2023-07-02T10:35:17.811Z,45.06
2023-07-02T10:37:45.589Z,45.40
2023-07-02T10:40:13.667Z,45.91
2023-07-02T10:42:51.958Z,45.25
2023-07-02T10:45:20.655Z,45.07
2023-07-02T10:47:48.244Z,44.92
2023-07-02T10:50:22.797Z,44.68
2023-07-02T10:52:51.999Z,43.77
2023-07-02T10:55:23.989Z,43.41
2023-07-02T10:58:03.122Z,44.32
2023-07-02T11:00:31.289Z,43.91
2023-07-02T11:02:58.936Z,45.44
2023-07-02T11:05:29.587Z,46.11
2023-07-02T11:08:10.066Z,46.85
2023-07-02T11:10:37.332Z,46.85
2023-07-02T11:13:21.714Z,45.64
2023-07-02T11:15:49.653Z,46.14
2023-07-02T11:18:19.205Z,45.10
2023-07-02T11:20:48.347Z,44.64
2023-07-02T11:23:19.629Z,44.39
2023-07-02T11:26:00.323Z,43.18
2023-07-02T11:28:29.091Z,43.89
2023-07-02T11:30:57.175Z,44.95
2023-07-02T11:33:37.675Z,44.16
2023-07-02T11:36:09.303Z,44.83
2023-07-02T11:38:38.259Z,45.13
2023-07-02T11:41:05.764Z,45.15
2023-07-02T11:43:33.746Z,44.40
2023-07-02T11:46:00.948Z,43.85
2023-07-02T11:48:28.885Z,43.99
2023-07-02T11:50:56.099Z,43.52
2023-07-02T11:53:23.262Z,43.50
2023-07-02T11:55:50.818Z,44.26
2023-07-02T11:58:18.241Z,44.08
2023-07-02T12:00:45.432Z,43.72
2023-07-02T12:03:13.303Z,41.94
2023-07-02T12:05:40.541Z,42.31
2023-07-02T12:08:08.555Z,42.23
2023-07-02T12:10:37.805Z,42.66
2023-07-02T12:13:05.942Z,42.67
2023-07-02T12:15:33.172Z,42.74
2023-07-02T12:18:00.467Z,42.71
2023-07-02T12:20:27.726Z,43.13
2023-07-02T12:22:54.896Z,43.69
2023-07-02T12:25:22.264Z,44.53
2023-07-02T12:27:49.518Z,44.40
2023-07-02T12:30:18.524Z,43.60
2023-07-02T12:32:46.118Z,43.37
2023-07-02T12:35:13.553Z,43.23
2023-07-02T12:37:48.458Z,43.21
2023-07-02T12:40:16.013Z,42.72
2023-07-02T12:42:44.479Z,42.91
2023-07-02T12:45:13.231Z,43.41
2023-07-02T12:47:42.178Z,43.83
2023-07-02T12:50:11.043Z,43.52
2023-07-02T12:52:38.772Z,44.15
2023-07-02T12:55:06.556Z,44.82
2023-07-02T12:57:33.756Z,44.04
2023-07-02T13:00:01.039Z,43.69
2023-07-02T13:02:29.294Z,43.45
2023-07-02T13:04:56.608Z,43.17
2023-07-02T13:07:25.196Z,43.07
2023-07-02T13:09:52.574Z,43.23
2023-07-02T13:12:19.773Z,43.25
2023-07-02T13:14:47.266Z,43.83
2023-07-02T13:17:14.480Z,43.47
2023-07-02T13:19:41.645Z,44.10
2023-07-02T13:22:08.949Z,44.03
2023-07-02T13:24:39.020Z,43.53
2023-07-02T13:27:10.289Z,43.28
2023-07-02T13:29:37.616Z,42.68
2023-07-02T13:32:05.219Z,42.69
2023-07-02T13:34:32.470Z,42.55
2023-07-02T13:36:59.676Z,42.91
2023-07-02T13:39:26.862Z,42.86
2023-07-02T13:41:54.048Z,43.12
2023-07-02T13:46:48.514Z,42.67
2023-07-02T13:49:15.681Z,42.43
2023-07-02T13:51:42.884Z,42.53
2023-07-02T13:54:13.688Z,41.83
2023-07-02T13:56:40.897Z,41.83
2023-07-02T13:59:08.539Z,41.96
2023-07-02T14:01:35.831Z,42.52
2023-07-02T14:04:04.748Z,42.50
2023-07-02T14:06:32.548Z,42.52
2023-07-02T14:08:59.794Z,42.48
2023-07-02T14:11:29.038Z,42.18
2023-07-02T14:13:56.838Z,42.51
2023-07-02T14:16:25.314Z,42.74
2023-07-02T14:18:53.242Z,43.11
2023-07-02T14:21:21.037Z,42.53
2023-07-02T14:23:48.227Z,43.63
2023-07-02T14:26:15.412Z,43.80
2023-07-02T14:28:42.676Z,43.19
2023-07-02T14:31:10.521Z,43.07
2023-07-02T14:33:38.993Z,43.06
2023-07-02T14:36:07.328Z,42.15
2023-07-02T14:38:35.628Z,41.93
2023-07-02T14:41:03.392Z,42.23
2023-07-02T14:43:32.146Z,41.78
2023-07-02T14:46:02.160Z,42.33
2023-07-02T14:48:29.764Z,41.55
2023-07-02T14:50:59.749Z,42.26
2023-07-02T14:53:28.458Z,42.56
2023-07-02T14:55:57.287Z,43.13
2023-07-02T14:58:26.663Z,44.04
2023-07-02T15:00:56.203Z,44.45
2023-07-02T15:03:25.975Z,44.47
2023-07-02T15:05:54.449Z,44.09
2023-07-02T15:08:22.751Z,44.31
2023-07-02T15:10:52.553Z,44.19
2023-07-02T15:13:22.947Z,44.21
2023-07-02T15:15:52.155Z,44.45
2023-07-02T15:18:21.474Z,43.24
2023-07-02T15:20:52.743Z,41.17
2023-07-02T15:23:21.625Z,40.55
2023-07-02T15:25:56.748Z,41.00
2023-07-02T15:28:25.102Z,41.18
2023-07-02T15:30:57.470Z,42.10
2023-07-02T15:33:25.517Z,40.80
2023-07-02T15:35:53.435Z,41.04
2023-07-02T15:38:21.588Z,41.93
2023-07-02T15:40:50.492Z,42.30
2023-07-02T15:43:17.744Z,42.84
2023-07-02T15:45:44.917Z,42.38
2023-07-02T15:48:14.874Z,42.11
2023-07-02T15:50:42.036Z,41.72
2023-07-02T15:53:09.245Z,41.87
2023-07-02T15:55:36.865Z,41.97
2023-07-02T15:58:04.089Z,42.23
2023-07-02T16:00:31.589Z,42.75
2023-07-02T16:02:58.943Z,42.83
2023-07-02T16:05:26.675Z,41.64
2023-07-02T16:07:54.076Z,42.12
2023-07-02T16:10:21.438Z,42.87
2023-07-02T16:12:49.791Z,43.40
2023-07-02T16:15:17.296Z,43.42
2023-07-02T16:17:44.560Z,43.65
2023-07-02T16:20:12.536Z,44.14
2023-07-02T16:22:39.845Z,44.29
2023-07-02T16:25:07.553Z,44.02
2023-07-02T16:27:35.919Z,43.64
2023-07-02T16:30:04.534Z,43.36
2023-07-02T16:32:32.990Z,43.51
2023-07-02T16:35:00.244Z,43.67
2023-07-02T16:37:27.736Z,43.18
2023-07-02T16:39:55.303Z,43.06
2023-07-02T16:42:22.571Z,42.78
2023-07-02T16:44:49.906Z,42.49
2023-07-02T16:47:17.147Z,42.72
2023-07-02T16:49:47.677Z,42.91
2023-07-02T16:52:15.969Z,43.58
2023-07-02T16:54:43.462Z,43.73
2023-07-02T16:57:10.687Z,44.20
2023-07-02T16:59:40.761Z,44.03
2023-07-02T17:02:10.207Z,43.78
2023-07-02T17:04:37.546Z,43.96
2023-07-02T17:07:05.024Z,44.14
2023-07-02T17:09:40.675Z,44.00
2023-07-02T17:12:12.823Z,42.96
2023-07-02T17:14:41.064Z,42.79
2023-07-02T17:17:11.669Z,43.21
2023-07-02T17:19:41.942Z,43.33
2023-07-02T17:22:12.292Z,43.09
2023-07-02T17:24:42.519Z,43.33
2023-07-02T17:27:11.928Z,42.97
2023-07-02T17:29:39.694Z,42.90
2023-07-02T17:32:09.507Z,42.96
2023-07-02T17:34:38.525Z,43.05
2023-07-02T17:37:07.777Z,42.48
2023-07-02T17:39:36.777Z,42.38
2023-07-02T17:42:05.221Z,42.25
2023-07-02T17:44:35.837Z,42.53
2023-07-02T17:47:06.878Z,42.66
2023-07-02T17:49:37.979Z,43.00
2023-07-02T17:52:06.587Z,43.27
2023-07-02T17:54:59.584Z,41.18
2023-07-02T17:57:26.837Z,42.02
2023-07-02T17:59:56.981Z,41.43
2023-07-02T18:02:24.482Z,41.88
2023-07-02T18:04:51.902Z,41.51
2023-07-02T18:07:21.307Z,41.28
2023-07-02T18:09:51.017Z,40.94
2023-07-02T18:12:26.467Z,40.77
2023-07-02T18:14:57.394Z,41.53
2023-07-02T18:17:24.860Z,41.33
2023-07-02T18:19:54.284Z,41.37
2023-07-02T18:22:22.208Z,41.52
2023-07-02T18:24:49.480Z,41.44
2023-07-02T18:27:17.416Z,41.20
2023-07-02T18:29:44.823Z,41.52
2023-07-02T18:32:12.022Z,41.57
2023-07-02T18:34:41.019Z,41.89
2023-07-02T18:37:11.027Z,42.49
2023-07-02T18:39:38.877Z,42.77
2023-07-02T18:42:09.270Z,42.52
2023-07-02T18:44:37.187Z,42.87
2023-07-02T18:47:07.740Z,43.06
2023-07-02T18:49:36.412Z,43.29
2023-07-02T18:52:15.132Z,43.20
2023-07-02T18:54:42.836Z,43.56
2023-07-02T18:57:12.091Z,43.27
2023-07-02T18:59:41.505Z,43.85
2023-07-02T19:02:08.847Z,43.63
2023-07-02T19:04:36.173Z,43.67
2023-07-02T19:07:06.174Z,43.91
2023-07-02T19:09:37.645Z,43.94
2023-07-02T19:12:08.485Z,44.27
2023-07-02T19:14:39.766Z,44.63
2023-07-02T19:17:10.222Z,44.62
2023-07-02T19:19:41.266Z,44.88
2023-07-02T19:22:12.972Z,44.82
2023-07-02T19:24:40.779Z,45.40
2023-07-02T19:27:10.758Z,45.41
2023-07-02T19:29:38.694Z,45.66
2023-07-02T19:32:06.485Z,45.93
2023-07-02T19:34:34.096Z,45.62
2023-07-02T19:37:01.683Z,46.11
2023-07-02T19:39:31.738Z,46.05
2023-07-02T19:41:59.181Z,46.27
2023-07-02T19:44:26.556Z,46.66
2023-07-02T19:46:53.781Z,46.44
2023-07-02T19:49:21.484Z,46.12
2023-07-02T19:51:51.503Z,45.58
2023-07-02T19:54:20.374Z,45.99
2023-07-02T19:56:49.972Z,45.91
2023-07-02T19:59:17.924Z,45.73
2023-07-02T20:01:45.419Z,46.07
2023-07-02T20:04:23.128Z,45.92
2023-07-02T20:06:50.909Z,46.30
2023-07-02T20:09:18.598Z,46.41
2023-07-02T20:11:45.898Z,46.29
2023-07-02T20:14:13.137Z,46.34
2023-07-02T20:16:40.800Z,46.50
2023-07-02T20:19:08.103Z,46.80
2023-07-02T20:21:35.332Z,46.50
2023-07-02T20:24:05.898Z,46.85
2023-07-02T20:26:35.520Z,47.13
2023-07-02T20:29:03.228Z,47.25
2023-07-02T20:31:31.595Z,47.20
2023-07-02T20:34:03.221Z,47.01
2023-07-02T20:36:32.341Z,47.25
2023-07-02T20:39:00.628Z,47.83
2023-07-02T20:41:29.235Z,47.27
2023-07-02T20:44:04.984Z,47.46
2023-07-02T20:46:32.805Z,47.81
2023-07-02T20:49:00.338Z,47.67
2023-07-02T20:51:28.074Z,47.49
2023-07-02T20:53:55.421Z,47.79
2023-07-02T20:56:22.759Z,47.77
2023-07-02T20:58:51.443Z,48.28
2023-07-02T21:01:18.745Z,48.08
2023-07-02T21:03:46.146Z,48.19
2023-07-02T21:06:13.642Z,47.88
2023-07-02T21:08:40.915Z,48.14
2023-07-02T21:11:20.326Z,48.16
2023-07-02T21:13:56.344Z,48.34
2023-07-02T21:16:24.155Z,48.34
2023-07-02T21:18:51.770Z,48.11
2023-07-02T21:21:19.119Z,47.69
2023-07-02T21:23:46.409Z,47.47
2023-07-02T21:26:13.658Z,47.88
2023-07-02T21:28:40.913Z,47.55
2023-07-02T21:31:08.317Z,47.73
2023-07-02T21:33:35.541Z,47.62
2023-07-02T21:36:08.700Z,47.59
2023-07-02T21:38:38.579Z,47.72
2023-07-02T21:41:07.289Z,48.08
2023-07-02T21:43:35.193Z,47.80
2023-07-02T21:46:04.752Z,47.64
2023-07-02T21:48:32.131Z,47.54
2023-07-02T21:50:59.378Z,47.72
2023-07-02T21:53:26.683Z,48.19
2023-07-02T21:55:54.081Z,48.12
2023-07-02T21:58:21.714Z,47.78
2023-07-02T22:00:49.173Z,47.86
2023-07-02T22:03:16.924Z,48.07
2023-07-02T22:05:44.201Z,47.97
2023-07-02T22:08:11.431Z,48.03
2023-07-02T22:10:38.636Z,48.04
2023-07-02T22:13:06.930Z,48.06
2023-07-02T22:15:34.201Z,48.33
2023-07-02T22:18:04.138Z,48.43
2023-07-02T22:20:33.636Z,48.13
2023-07-02T22:23:01.844Z,47.98
2023-07-02T22:25:29.626Z,47.95
2023-07-02T22:27:57.383Z,47.95
2023-07-02T22:30:24.860Z,47.86
2023-07-02T22:32:52.192Z,48.11
2023-07-02T22:35:20.008Z,48.01
2023-07-02T22:37:47.842Z,48.20
2023-07-02T22:40:17.815Z,48.59
2023-07-02T22:42:45.883Z,48.21
2023-07-02T22:45:15.181Z,48.49
2023-07-02T22:47:43.791Z,48.81
2023-07-02T22:50:13.670Z,48.59
2023-07-02T22:52:40.894Z,48.61
2023-07-02T22:55:08.662Z,48.68
2023-07-02T22:57:36.455Z,48.71
2023-07-02T23:00:13.430Z,48.61
2023-07-02T23:02:46.450Z,48.78
2023-07-02T23:05:18.350Z,49.14
2023-07-02T23:07:47.512Z,49.54
2023-07-02T23:10:17.403Z,49.28
2023-07-02T23:12:49.750Z,49.29
2023-07-02T23:15:19.761Z,49.27
2023-07-02T23:17:52.272Z,49.12
2023-07-02T23:20:20.305Z,49.33
2023-07-02T23:22:49.625Z,49.42
2023-07-02T23:25:21.718Z,49.48
2023-07-02T23:27:50.346Z,49.30
2023-07-02T23:30:20.976Z,49.51
2023-07-02T23:32:50.036Z,49.18
2023-07-02T23:35:17.457Z,49.44
2023-07-02T23:37:46.816Z,49.40
2023-07-02T23:40:17.596Z,49.37
2023-07-02T23:42:45.517Z,49.42
2023-07-02T23:45:14.471Z,49.55
2023-07-02T23:47:44.023Z,49.41
2023-07-02T23:50:13.214Z,49.55
2023-07-02T23:52:40.741Z,49.27
2023-07-02T23:55:11.515Z,49.48
2023-07-02T23:57:39.251Z,49.64
